KGVL/GVL METAR and TAF weather

Enter ICAO airport designator
Station Type Date Time Source
KGVL METAR 2019/08/25 03:00 UTC NOAA

KGVL 250300Z AUTO 08009KT 10SM OVC014 21/18 A3016 RMK AO2 T02060178


Station Type Date Time Source
KGVL Decoded METAR 2019/08/25 03:00 UTC NOAA

Station name not available
Aug 24, 2019 - 11:00 PM EDT / 2019.08.25 0300 UTC
Wind: from the E (080 degrees) at 10 MPH (9 KT):0
Visibility: 10 mile(s):0
Sky conditions: overcast
Temperature: 69.1 F (20.6 C)
Dew Point: 64.0 F (17.8 C)
Relative Humidity: 83%
Pressure (altimeter): 30.16 in. Hg (1021 hPa)
ob: KGVL 250300Z AUTO 08009KT 10SM OVC014 21/18 A3016 RMK AO2 T02060178
cycle: 3

Station Type Date Time Source
KGVL TAF UTC NOAA

Error!

Example: see airport list